sensor_id;sensor_type;location;lat;lon;timestamp;P1;durP1;ratioP1;P2;durP2;ratioP2
39728;SDS011;25402;42.004;23.088;2023-02-28T00:01:12;6.72;;;2.33;;
39728;SDS011;25402;42.004;23.088;2023-02-28T00:03:40;8.70;;;2.85;;
39728;SDS011;25402;42.004;23.088;2023-02-28T00:06:07;5.38;;;2.30;;
39728;SDS011;25402;42.004;23.088;2023-02-28T00:08:34;11.43;;;3.10;;
39728;SDS011;25402;42.004;23.088;2023-02-28T00:11:01;11.45;;;3.90;;
39728;SDS011;25402;42.004;23.088;2023-02-28T00:13:28;8.30;;;3.28;;
39728;SDS011;25402;42.004;23.088;2023-02-28T00:15:58;10.13;;;2.65;;
39728;SDS011;25402;42.004;23.088;2023-02-28T00:18:25;10.00;;;3.70;;
39728;SDS011;25402;42.004;23.088;2023-02-28T00:20:53;12.95;;;4.20;;
39728;SDS011;25402;42.004;23.088;2023-02-28T00:23:20;13.90;;;5.10;;
39728;SDS011;25402;42.004;23.088;2023-02-28T00:25:47;12.18;;;4.40;;
39728;SDS011;25402;42.004;23.088;2023-02-28T00:28:13;9.80;;;4.75;;
39728;SDS011;25402;42.004;23.088;2023-02-28T00:30:40;9.98;;;4.30;;
39728;SDS011;25402;42.004;23.088;2023-02-28T00:33:06;14.02;;;4.53;;
39728;SDS011;25402;42.004;23.088;2023-02-28T00:35:33;15.25;;;4.43;;
39728;SDS011;25402;42.004;23.088;2023-02-28T00:38:01;14.85;;;4.30;;
39728;SDS011;25402;42.004;23.088;2023-02-28T00:40:28;11.75;;;4.35;;
39728;SDS011;25402;42.004;23.088;2023-02-28T00:42:54;14.50;;;4.88;;
39728;SDS011;25402;42.004;23.088;2023-02-28T00:45:21;17.05;;;5.78;;
39728;SDS011;25402;42.004;23.088;2023-02-28T00:47:48;17.45;;;4.97;;
39728;SDS011;25402;42.004;23.088;2023-02-28T00:50:15;12.63;;;5.07;;
39728;SDS011;25402;42.004;23.088;2023-02-28T00:52:42;13.05;;;5.10;;
39728;SDS011;25402;42.004;23.088;2023-02-28T00:55:10;9.02;;;4.72;;
39728;SDS011;25402;42.004;23.088;2023-02-28T00:57:37;12.10;;;5.35;;
39728;SDS011;25402;42.004;23.088;2023-02-28T01:00:04;13.55;;;4.68;;
39728;SDS011;25402;42.004;23.088;2023-02-28T01:02:31;16.42;;;4.72;;
39728;SDS011;25402;42.004;23.088;2023-02-28T01:04:57;12.02;;;4.63;;
39728;SDS011;25402;42.004;23.088;2023-02-28T01:07:24;12.15;;;4.60;;
39728;SDS011;25402;42.004;23.088;2023-02-28T01:09:51;12.65;;;4.15;;
39728;SDS011;25402;42.004;23.088;2023-02-28T01:12:19;11.20;;;3.88;;
39728;SDS011;25402;42.004;23.088;2023-02-28T01:14:45;9.85;;;4.50;;
39728;SDS011;25402;42.004;23.088;2023-02-28T01:17:12;9.00;;;4.07;;
39728;SDS011;25402;42.004;23.088;2023-02-28T01:19:38;12.68;;;4.32;;
39728;SDS011;25402;42.004;23.088;2023-02-28T01:22:05;8.10;;;3.95;;
39728;SDS011;25402;42.004;23.088;2023-02-28T01:24:32;9.07;;;4.25;;
39728;SDS011;25402;42.004;23.088;2023-02-28T01:26:59;13.70;;;3.63;;
39728;SDS011;25402;42.004;23.088;2023-02-28T01:29:27;9.43;;;4.13;;
39728;SDS011;25402;42.004;23.088;2023-02-28T01:31:53;9.75;;;4.22;;
39728;SDS011;25402;42.004;23.088;2023-02-28T01:34:20;11.02;;;3.60;;
39728;SDS011;25402;42.004;23.088;2023-02-28T01:36:46;8.32;;;3.72;;
39728;SDS011;25402;42.004;23.088;2023-02-28T01:39:13;9.80;;;4.10;;
39728;SDS011;25402;42.004;23.088;2023-02-28T01:41:39;10.35;;;4.50;;
39728;SDS011;25402;42.004;23.088;2023-02-28T01:44:07;13.75;;;4.72;;
39728;SDS011;25402;42.004;23.088;2023-02-28T01:46:54;12.18;;;4.75;;
39728;SDS011;25402;42.004;23.088;2023-02-28T01:49:21;8.52;;;3.03;;
39728;SDS011;25402;42.004;23.088;2023-02-28T01:51:48;11.50;;;3.65;;
39728;SDS011;25402;42.004;23.088;2023-02-28T01:54:17;8.35;;;3.05;;
39728;SDS011;25402;42.004;23.088;2023-02-28T01:56:46;11.32;;;3.35;;
39728;SDS011;25402;42.004;23.088;2023-02-28T01:59:14;18.88;;;4.05;;
39728;SDS011;25402;42.004;23.088;2023-02-28T02:01:43;10.63;;;3.63;;
39728;SDS011;25402;42.004;23.088;2023-02-28T02:04:11;12.75;;;3.97;;
39728;SDS011;25402;42.004;23.088;2023-02-28T02:06:38;10.50;;;3.55;;
39728;SDS011;25402;42.004;23.088;2023-02-28T02:09:06;11.30;;;3.38;;
39728;SDS011;25402;42.004;23.088;2023-02-28T02:11:33;9.68;;;3.50;;
39728;SDS011;25402;42.004;23.088;2023-02-28T02:14:12;8.20;;;2.85;;
39728;SDS011;25402;42.004;23.088;2023-02-28T02:16:42;11.07;;;3.95;;
39728;SDS011;25402;42.004;23.088;2023-02-28T02:19:28;8.27;;;3.83;;
39728;SDS011;25402;42.004;23.088;2023-02-28T02:22:07;8.15;;;3.72;;
39728;SDS011;25402;42.004;23.088;2023-02-28T02:27:23;10.95;;;3.92;;
39728;SDS011;25402;42.004;23.088;2023-02-28T02:30:05;8.60;;;3.63;;
39728;SDS011;25402;42.004;23.088;2023-02-28T02:35:22;15.60;;;6.47;;
39728;SDS011;25402;42.004;23.088;2023-02-28T02:37:51;20.00;;;6.13;;
39728;SDS011;25402;42.004;23.088;2023-02-28T02:40:21;20.88;;;6.93;;
39728;SDS011;25402;42.004;23.088;2023-02-28T02:42:50;16.08;;;5.97;;
39728;SDS011;25402;42.004;23.088;2023-02-28T02:45:22;18.08;;;7.22;;
39728;SDS011;25402;42.004;23.088;2023-02-28T02:47:50;25.20;;;7.45;;
39728;SDS011;25402;42.004;23.088;2023-02-28T02:50:19;29.13;;;7.53;;
39728;SDS011;25402;42.004;23.088;2023-02-28T02:52:50;24.90;;;7.40;;
39728;SDS011;25402;42.004;23.088;2023-02-28T02:55:18;25.45;;;7.72;;
39728;SDS011;25402;42.004;23.088;2023-02-28T02:57:46;28.02;;;8.35;;
39728;SDS011;25402;42.004;23.088;2023-02-28T03:00:14;25.27;;;8.05;;
39728;SDS011;25402;42.004;23.088;2023-02-28T03:02:42;27.30;;;10.07;;
39728;SDS011;25402;42.004;23.088;2023-02-28T03:05:12;18.95;;;8.32;;
39728;SDS011;25402;42.004;23.088;2023-02-28T03:07:39;17.17;;;7.13;;
39728;SDS011;25402;42.004;23.088;2023-02-28T03:12:50;19.60;;;8.15;;
39728;SDS011;25402;42.004;23.088;2023-02-28T03:15:19;19.38;;;8.43;;
39728;SDS011;25402;42.004;23.088;2023-02-28T03:17:50;19.95;;;7.97;;
39728;SDS011;25402;42.004;23.088;2023-02-28T03:20:21;16.42;;;8.65;;
39728;SDS011;25402;42.004;23.088;2023-02-28T03:22:55;23.05;;;9.18;;
39728;SDS011;25402;42.004;23.088;2023-02-28T03:25:27;16.48;;;7.25;;
39728;SDS011;25402;42.004;23.088;2023-02-28T03:28:00;26.48;;;8.43;;
39728;SDS011;25402;42.004;23.088;2023-02-28T03:30:29;19.15;;;7.68;;
39728;SDS011;25402;42.004;23.088;2023-02-28T03:32:58;24.80;;;7.60;;
39728;SDS011;25402;42.004;23.088;2023-02-28T03:35:27;24.83;;;7.40;;
39728;SDS011;25402;42.004;23.088;2023-02-28T03:37:59;18.58;;;6.88;;
39728;SDS011;25402;42.004;23.088;2023-02-28T03:40:28;24.23;;;6.40;;
39728;SDS011;25402;42.004;23.088;2023-02-28T03:42:57;15.13;;;5.70;;
39728;SDS011;25402;42.004;23.088;2023-02-28T03:45:27;17.33;;;6.13;;
39728;SDS011;25402;42.004;23.088;2023-02-28T03:47:59;15.40;;;6.13;;
39728;SDS011;25402;42.004;23.088;2023-02-28T03:50:27;23.65;;;7.45;;
39728;SDS011;25402;42.004;23.088;2023-02-28T03:52:56;17.60;;;6.00;;
39728;SDS011;25402;42.004;23.088;2023-02-28T03:55:26;19.25;;;7.70;;
39728;SDS011;25402;42.004;23.088;2023-02-28T03:57:56;25.02;;;11.32;;
39728;SDS011;25402;42.004;23.088;2023-02-28T04:00:27;16.80;;;6.40;;
39728;SDS011;25402;42.004;23.088;2023-02-28T04:02:55;11.90;;;5.10;;
39728;SDS011;25402;42.004;23.088;2023-02-28T04:05:22;11.80;;;4.85;;
39728;SDS011;25402;42.004;23.088;2023-02-28T04:07:49;10.73;;;4.80;;
39728;SDS011;25402;42.004;23.088;2023-02-28T04:10:16;11.70;;;5.00;;
39728;SDS011;25402;42.004;23.088;2023-02-28T04:12:42;16.15;;;4.68;;
39728;SDS011;25402;42.004;23.088;2023-02-28T04:15:09;16.30;;;4.07;;
39728;SDS011;25402;42.004;23.088;2023-02-28T04:17:39;14.23;;;4.35;;
39728;SDS011;25402;42.004;23.088;2023-02-28T04:20:06;11.05;;;4.20;;
39728;SDS011;25402;42.004;23.088;2023-02-28T04:22:34;17.23;;;5.88;;
39728;SDS011;25402;42.004;23.088;2023-02-28T04:25:01;14.30;;;5.85;;
39728;SDS011;25402;42.004;23.088;2023-02-28T04:27:28;15.52;;;6.25;;
39728;SDS011;25402;42.004;23.088;2023-02-28T04:29:54;16.13;;;7.68;;
39728;SDS011;25402;42.004;23.088;2023-02-28T04:32:21;15.65;;;7.63;;
39728;SDS011;25402;42.004;23.088;2023-02-28T04:34:49;15.68;;;6.43;;
39728;SDS011;25402;42.004;23.088;2023-02-28T04:37:15;13.23;;;7.50;;
39728;SDS011;25402;42.004;23.088;2023-02-28T04:39:42;14.18;;;7.15;;
39728;SDS011;25402;42.004;23.088;2023-02-28T04:42:08;15.95;;;7.22;;
39728;SDS011;25402;42.004;23.088;2023-02-28T04:44:35;13.32;;;6.50;;
39728;SDS011;25402;42.004;23.088;2023-02-28T04:47:01;13.85;;;6.90;;
39728;SDS011;25402;42.004;23.088;2023-02-28T04:49:28;12.52;;;6.38;;
39728;SDS011;25402;42.004;23.088;2023-02-28T04:51:56;14.10;;;6.70;;
39728;SDS011;25402;42.004;23.088;2023-02-28T04:54:22;15.73;;;6.65;;
39728;SDS011;25402;42.004;23.088;2023-02-28T04:56:49;15.63;;;7.10;;
39728;SDS011;25402;42.004;23.088;2023-02-28T04:59:16;16.95;;;7.53;;
39728;SDS011;25402;42.004;23.088;2023-02-28T05:01:45;17.92;;;7.75;;
39728;SDS011;25402;42.004;23.088;2023-02-28T05:04:12;19.75;;;8.35;;
39728;SDS011;25402;42.004;23.088;2023-02-28T05:06:38;18.38;;;8.40;;
39728;SDS011;25402;42.004;23.088;2023-02-28T05:09:06;15.93;;;8.23;;
39728;SDS011;25402;42.004;23.088;2023-02-28T05:11:33;22.85;;;9.23;;
39728;SDS011;25402;42.004;23.088;2023-02-28T05:14:01;17.00;;;6.90;;
39728;SDS011;25402;42.004;23.088;2023-02-28T05:16:27;19.67;;;9.30;;
39728;SDS011;25402;42.004;23.088;2023-02-28T05:18:54;28.33;;;14.20;;
39728;SDS011;25402;42.004;23.088;2023-02-28T05:21:25;24.52;;;10.05;;
39728;SDS011;25402;42.004;23.088;2023-02-28T05:23:52;27.17;;;13.05;;
39728;SDS011;25402;42.004;23.088;2023-02-28T05:26:20;19.35;;;8.02;;
39728;SDS011;25402;42.004;23.088;2023-02-28T05:28:47;22.52;;;8.35;;
39728;SDS011;25402;42.004;23.088;2023-02-28T05:31:14;29.63;;;13.32;;
39728;SDS011;25402;42.004;23.088;2023-02-28T05:33:40;39.75;;;17.35;;
39728;SDS011;25402;42.004;23.088;2023-02-28T05:36:07;37.22;;;16.52;;
39728;SDS011;25402;42.004;23.088;2023-02-28T05:38:33;26.52;;;12.35;;
39728;SDS011;25402;42.004;23.088;2023-02-28T05:41:04;29.70;;;10.40;;
39728;SDS011;25402;42.004;23.088;2023-02-28T05:43:32;33.10;;;13.25;;
39728;SDS011;25402;42.004;23.088;2023-02-28T05:45:58;31.08;;;11.90;;
39728;SDS011;25402;42.004;23.088;2023-02-28T05:48:25;44.50;;;16.52;;
39728;SDS011;25402;42.004;23.088;2023-02-28T05:50:53;51.65;;;23.65;;
39728;SDS011;25402;42.004;23.088;2023-02-28T05:53:20;29.00;;;12.52;;
39728;SDS011;25402;42.004;23.088;2023-02-28T05:55:47;43.22;;;20.45;;
39728;SDS011;25402;42.004;23.088;2023-02-28T05:58:13;37.28;;;16.92;;
39728;SDS011;25402;42.004;23.088;2023-02-28T06:00:42;20.58;;;7.60;;
39728;SDS011;25402;42.004;23.088;2023-02-28T06:03:09;14.90;;;4.93;;
39728;SDS011;25402;42.004;23.088;2023-02-28T06:05:35;14.00;;;6.10;;
39728;SDS011;25402;42.004;23.088;2023-02-28T06:08:03;18.60;;;5.45;;
39728;SDS011;25402;42.004;23.088;2023-02-28T06:10:32;12.70;;;5.38;;
39728;SDS011;25402;42.004;23.088;2023-02-28T06:12:59;20.35;;;6.55;;
39728;SDS011;25402;42.004;23.088;2023-02-28T06:15:27;18.98;;;6.90;;
39728;SDS011;25402;42.004;23.088;2023-02-28T06:18:02;16.63;;;6.78;;
39728;SDS011;25402;42.004;23.088;2023-02-28T06:20:29;11.18;;;5.72;;
39728;SDS011;25402;42.004;23.088;2023-02-28T06:22:57;15.40;;;6.85;;
39728;SDS011;25402;42.004;23.088;2023-02-28T06:25:25;17.38;;;6.95;;
39728;SDS011;25402;42.004;23.088;2023-02-28T06:27:53;13.77;;;5.75;;
39728;SDS011;25402;42.004;23.088;2023-02-28T06:30:24;16.48;;;6.72;;
39728;SDS011;25402;42.004;23.088;2023-02-28T06:32:53;11.15;;;5.32;;
39728;SDS011;25402;42.004;23.088;2023-02-28T06:35:22;14.27;;;7.70;;
39728;SDS011;25402;42.004;23.088;2023-02-28T06:37:49;15.82;;;7.50;;
39728;SDS011;25402;42.004;23.088;2023-02-28T06:40:16;21.92;;;8.48;;
39728;SDS011;25402;42.004;23.088;2023-02-28T06:42:43;25.05;;;12.07;;
39728;SDS011;25402;42.004;23.088;2023-02-28T06:45:10;25.05;;;10.90;;
39728;SDS011;25402;42.004;23.088;2023-02-28T06:47:37;24.95;;;10.23;;
39728;SDS011;25402;42.004;23.088;2023-02-28T06:50:05;21.55;;;8.88;;
39728;SDS011;25402;42.004;23.088;2023-02-28T06:52:33;28.08;;;8.80;;
39728;SDS011;25402;42.004;23.088;2023-02-28T06:55:02;21.60;;;8.32;;
39728;SDS011;25402;42.004;23.088;2023-02-28T06:57:30;27.20;;;6.90;;
39728;SDS011;25402;42.004;23.088;2023-02-28T06:59:57;22.15;;;8.27;;
39728;SDS011;25402;42.004;23.088;2023-02-28T07:02:24;19.73;;;6.88;;
39728;SDS011;25402;42.004;23.088;2023-02-28T07:04:50;22.80;;;8.15;;
39728;SDS011;25402;42.004;23.088;2023-02-28T07:07:17;16.13;;;7.22;;
39728;SDS011;25402;42.004;23.088;2023-02-28T07:09:45;17.65;;;6.97;;
39728;SDS011;25402;42.004;23.088;2023-02-28T07:12:11;15.77;;;7.28;;
39728;SDS011;25402;42.004;23.088;2023-02-28T07:14:38;12.77;;;6.28;;
39728;SDS011;25402;42.004;23.088;2023-02-28T07:17:06;19.15;;;6.55;;
39728;SDS011;25402;42.004;23.088;2023-02-28T07:19:35;22.17;;;6.57;;
39728;SDS011;25402;42.004;23.088;2023-02-28T07:22:02;16.33;;;7.90;;
39728;SDS011;25402;42.004;23.088;2023-02-28T07:24:28;25.50;;;9.75;;
39728;SDS011;25402;42.004;23.088;2023-02-28T07:26:59;19.10;;;8.73;;
39728;SDS011;25402;42.004;23.088;2023-02-28T07:29:26;20.75;;;9.35;;
39728;SDS011;25402;42.004;23.088;2023-02-28T07:31:53;26.52;;;9.23;;
39728;SDS011;25402;42.004;23.088;2023-02-28T07:34:19;22.17;;;9.38;;
39728;SDS011;25402;42.004;23.088;2023-02-28T07:36:46;22.75;;;10.10;;
39728;SDS011;25402;42.004;23.088;2023-02-28T07:39:13;27.40;;;11.85;;
39728;SDS011;25402;42.004;23.088;2023-02-28T07:41:39;26.95;;;12.40;;
39728;SDS011;25402;42.004;23.088;2023-02-28T07:44:10;29.58;;;12.18;;
39728;SDS011;25402;42.004;23.088;2023-02-28T07:46:36;28.23;;;12.80;;
39728;SDS011;25402;42.004;23.088;2023-02-28T07:49:03;33.63;;;14.02;;
39728;SDS011;25402;42.004;23.088;2023-02-28T07:51:30;28.40;;;13.02;;
39728;SDS011;25402;42.004;23.088;2023-02-28T07:53:57;37.47;;;15.35;;
39728;SDS011;25402;42.004;23.088;2023-02-28T07:56:23;35.08;;;14.02;;
39728;SDS011;25402;42.004;23.088;2023-02-28T07:58:50;34.90;;;14.13;;
39728;SDS011;25402;42.004;23.088;2023-02-28T08:01:18;36.90;;;14.65;;
39728;SDS011;25402;42.004;23.088;2023-02-28T08:03:44;39.72;;;20.27;;
39728;SDS011;25402;42.004;23.088;2023-02-28T08:06:15;36.00;;;15.15;;
39728;SDS011;25402;42.004;23.088;2023-02-28T08:08:42;73.50;;;33.55;;
39728;SDS011;25402;42.004;23.088;2023-02-28T08:11:09;34.75;;;14.57;;
39728;SDS011;25402;42.004;23.088;2023-02-28T08:13:36;39.80;;;18.13;;
39728;SDS011;25402;42.004;23.088;2023-02-28T08:16:05;23.58;;;11.10;;
39728;SDS011;25402;42.004;23.088;2023-02-28T08:18:33;31.35;;;11.48;;
39728;SDS011;25402;42.004;23.088;2023-02-28T08:21:04;30.80;;;9.75;;
39728;SDS011;25402;42.004;23.088;2023-02-28T08:23:31;40.78;;;10.27;;
39728;SDS011;25402;42.004;23.088;2023-02-28T08:25:59;26.40;;;8.40;;
39728;SDS011;25402;42.004;23.088;2023-02-28T08:28:26;30.67;;;9.10;;
39728;SDS011;25402;42.004;23.088;2023-02-28T08:30:53;25.33;;;10.05;;
39728;SDS011;25402;42.004;23.088;2023-02-28T08:33:19;30.38;;;11.05;;
39728;SDS011;25402;42.004;23.088;2023-02-28T08:35:47;33.25;;;11.13;;
39728;SDS011;25402;42.004;23.088;2023-02-28T08:38:14;36.25;;;11.35;;
39728;SDS011;25402;42.004;23.088;2023-02-28T08:40:41;42.25;;;11.90;;
39728;SDS011;25402;42.004;23.088;2023-02-28T08:43:07;31.63;;;13.13;;
39728;SDS011;25402;42.004;23.088;2023-02-28T08:45:34;29.60;;;12.60;;
39728;SDS011;25402;42.004;23.088;2023-02-28T08:48:01;41.15;;;12.65;;
39728;SDS011;25402;42.004;23.088;2023-02-28T08:50:27;32.03;;;13.38;;
39728;SDS011;25402;42.004;23.088;2023-02-28T08:52:58;30.38;;;10.90;;
39728;SDS011;25402;42.004;23.088;2023-02-28T08:55:24;31.88;;;10.65;;
39728;SDS011;25402;42.004;23.088;2023-02-28T08:57:51;21.40;;;10.73;;
39728;SDS011;25402;42.004;23.088;2023-02-28T09:00:20;28.52;;;11.30;;
39728;SDS011;25402;42.004;23.088;2023-02-28T09:02:47;32.38;;;12.40;;
39728;SDS011;25402;42.004;23.088;2023-02-28T09:05:13;37.67;;;13.73;;
39728;SDS011;25402;42.004;23.088;2023-02-28T09:07:40;31.30;;;10.45;;
39728;SDS011;25402;42.004;23.088;2023-02-28T09:10:09;25.65;;;10.98;;
39728;SDS011;25402;42.004;23.088;2023-02-28T09:12:35;34.65;;;13.27;;
39728;SDS011;25402;42.004;23.088;2023-02-28T09:15:02;26.63;;;13.73;;
39728;SDS011;25402;42.004;23.088;2023-02-28T09:17:29;30.77;;;13.50;;
39728;SDS011;25402;42.004;23.088;2023-02-28T09:19:56;33.33;;;12.82;;
39728;SDS011;25402;42.004;23.088;2023-02-28T09:22:23;28.13;;;12.60;;
39728;SDS011;25402;42.004;23.088;2023-02-28T09:24:49;36.22;;;14.32;;
39728;SDS011;25402;42.004;23.088;2023-02-28T09:27:17;30.83;;;12.52;;
39728;SDS011;25402;42.004;23.088;2023-02-28T09:29:44;25.38;;;10.75;;
39728;SDS011;25402;42.004;23.088;2023-02-28T09:32:11;28.35;;;12.23;;
39728;SDS011;25402;42.004;23.088;2023-02-28T09:34:38;26.48;;;11.27;;
39728;SDS011;25402;42.004;23.088;2023-02-28T09:37:04;30.63;;;11.68;;
39728;SDS011;25402;42.004;23.088;2023-02-28T09:39:31;28.60;;;9.98;;
39728;SDS011;25402;42.004;23.088;2023-02-28T09:41:59;32.72;;;11.73;;
39728;SDS011;25402;42.004;23.088;2023-02-28T09:44:30;26.05;;;11.70;;
39728;SDS011;25402;42.004;23.088;2023-02-28T09:46:58;24.17;;;10.55;;
39728;SDS011;25402;42.004;23.088;2023-02-28T09:49:28;28.38;;;10.07;;
39728;SDS011;25402;42.004;23.088;2023-02-28T09:51:58;25.38;;;9.77;;
39728;SDS011;25402;42.004;23.088;2023-02-28T09:54:27;33.13;;;11.18;;
39728;SDS011;25402;42.004;23.088;2023-02-28T09:56:56;25.25;;;11.10;;
39728;SDS011;25402;42.004;23.088;2023-02-28T09:59:30;30.67;;;10.43;;
39728;SDS011;25402;42.004;23.088;2023-02-28T10:02:02;27.58;;;11.60;;
39728;SDS011;25402;42.004;23.088;2023-02-28T10:04:36;41.83;;;15.43;;
39728;SDS011;25402;42.004;23.088;2023-02-28T10:07:06;45.58;;;14.93;;
39728;SDS011;25402;42.004;23.088;2023-02-28T10:09:42;37.90;;;16.33;;
39728;SDS011;25402;42.004;23.088;2023-02-28T10:12:09;26.17;;;11.05;;
39728;SDS011;25402;42.004;23.088;2023-02-28T10:14:39;34.38;;;14.77;;
39728;SDS011;25402;42.004;23.088;2023-02-28T10:17:10;39.38;;;13.30;;
39728;SDS011;25402;42.004;23.088;2023-02-28T10:19:39;35.55;;;12.57;;
39728;SDS011;25402;42.004;23.088;2023-02-28T10:22:08;48.53;;;24.20;;
39728;SDS011;25402;42.004;23.088;2023-02-28T10:24:38;33.08;;;13.93;;
39728;SDS011;25402;42.004;23.088;2023-02-28T10:27:06;28.52;;;12.32;;
39728;SDS011;25402;42.004;23.088;2023-02-28T10:29:38;27.00;;;9.93;;
39728;SDS011;25402;42.004;23.088;2023-02-28T10:32:06;34.15;;;15.60;;
39728;SDS011;25402;42.004;23.088;2023-02-28T10:34:33;32.17;;;13.70;;
39728;SDS011;25402;42.004;23.088;2023-02-28T10:36:59;31.88;;;12.10;;
39728;SDS011;25402;42.004;23.088;2023-02-28T10:39:36;26.00;;;11.63;;
39728;SDS011;25402;42.004;23.088;2023-02-28T10:42:03;28.73;;;12.55;;
39728;SDS011;25402;42.004;23.088;2023-02-28T10:44:30;38.95;;;12.35;;
39728;SDS011;25402;42.004;23.088;2023-02-28T10:46:58;28.00;;;10.93;;
39728;SDS011;25402;42.004;23.088;2023-02-28T10:49:25;30.10;;;13.15;;
39728;SDS011;25402;42.004;23.088;2023-02-28T10:51:54;34.80;;;11.48;;
39728;SDS011;25402;42.004;23.088;2023-02-28T10:54:22;23.95;;;10.02;;
39728;SDS011;25402;42.004;23.088;2023-02-28T10:57:05;19.83;;;10.50;;
39728;SDS011;25402;42.004;23.088;2023-02-28T10:59:32;26.73;;;11.07;;
39728;SDS011;25402;42.004;23.088;2023-02-28T11:02:00;28.88;;;10.25;;
39728;SDS011;25402;42.004;23.088;2023-02-28T11:04:35;32.70;;;10.57;;
39728;SDS011;25402;42.004;23.088;2023-02-28T11:07:04;31.35;;;10.85;;
39728;SDS011;25402;42.004;23.088;2023-02-28T11:09:33;32.03;;;10.32;;
39728;SDS011;25402;42.004;23.088;2023-02-28T11:12:01;28.75;;;10.52;;
39728;SDS011;25402;42.004;23.088;2023-02-28T11:14:29;26.40;;;10.13;;
39728;SDS011;25402;42.004;23.088;2023-02-28T11:16:57;30.48;;;10.73;;
39728;SDS011;25402;42.004;23.088;2023-02-28T11:19:27;29.13;;;10.40;;
39728;SDS011;25402;42.004;23.088;2023-02-28T11:21:56;32.92;;;10.20;;
39728;SDS011;25402;42.004;23.088;2023-02-28T11:24:26;31.25;;;10.15;;
39728;SDS011;25402;42.004;23.088;2023-02-28T11:26:53;30.27;;;10.60;;
39728;SDS011;25402;42.004;23.088;2023-02-28T11:29:21;33.28;;;10.85;;
39728;SDS011;25402;42.004;23.088;2023-02-28T11:32:01;34.22;;;10.77;;
39728;SDS011;25402;42.004;23.088;2023-02-28T11:34:29;26.80;;;9.23;;
39728;SDS011;25402;42.004;23.088;2023-02-28T11:36:57;24.27;;;9.63;;
39728;SDS011;25402;42.004;23.088;2023-02-28T11:39:25;30.85;;;10.65;;
39728;SDS011;25402;42.004;23.088;2023-02-28T11:44:41;40.53;;;9.30;;
39728;SDS011;25402;42.004;23.088;2023-02-28T11:47:10;24.75;;;9.63;;
39728;SDS011;25402;42.004;23.088;2023-02-28T11:49:43;31.00;;;9.95;;
39728;SDS011;25402;42.004;23.088;2023-02-28T11:52:15;22.15;;;10.45;;
39728;SDS011;25402;42.004;23.088;2023-02-28T11:54:51;27.45;;;9.77;;
39728;SDS011;25402;42.004;23.088;2023-02-28T11:57:24;28.15;;;9.45;;
39728;SDS011;25402;42.004;23.088;2023-02-28T11:59:56;30.35;;;9.38;;
39728;SDS011;25402;42.004;23.088;2023-02-28T12:02:26;33.25;;;9.95;;
39728;SDS011;25402;42.004;23.088;2023-02-28T12:05:01;28.75;;;9.15;;
39728;SDS011;25402;42.004;23.088;2023-02-28T12:07:35;25.98;;;9.98;;
39728;SDS011;25402;42.004;23.088;2023-02-28T12:10:06;25.17;;;9.48;;
39728;SDS011;25402;42.004;23.088;2023-02-28T12:12:38;18.02;;;9.38;;
39728;SDS011;25402;42.004;23.088;2023-02-28T12:15:15;33.38;;;10.02;;
39728;SDS011;25402;42.004;23.088;2023-02-28T12:17:46;24.23;;;10.20;;
39728;SDS011;25402;42.004;23.088;2023-02-28T12:20:21;31.30;;;11.60;;
39728;SDS011;25402;42.004;23.088;2023-02-28T12:22:50;25.80;;;10.57;;
39728;SDS011;25402;42.004;23.088;2023-02-28T12:25:26;33.28;;;13.40;;
39728;SDS011;25402;42.004;23.088;2023-02-28T12:28:01;26.10;;;10.55;;
39728;SDS011;25402;42.004;23.088;2023-02-28T12:30:29;24.65;;;9.38;;
39728;SDS011;25402;42.004;23.088;2023-02-28T12:32:58;23.27;;;8.25;;
39728;SDS011;25402;42.004;23.088;2023-02-28T12:35:31;23.35;;;9.35;;
39728;SDS011;25402;42.004;23.088;2023-02-28T12:38:01;24.17;;;8.90;;
39728;SDS011;25402;42.004;23.088;2023-02-28T12:40:29;21.10;;;8.82;;
39728;SDS011;25402;42.004;23.088;2023-02-28T12:42:59;27.50;;;8.88;;
39728;SDS011;25402;42.004;23.088;2023-02-28T12:45:31;22.80;;;8.63;;
39728;SDS011;25402;42.004;23.088;2023-02-28T12:48:04;19.23;;;8.10;;
39728;SDS011;25402;42.004;23.088;2023-02-28T12:50:33;21.55;;;9.27;;
39728;SDS011;25402;42.004;23.088;2023-02-28T12:53:02;26.20;;;9.10;;
39728;SDS011;25402;42.004;23.088;2023-02-28T12:55:31;19.88;;;9.00;;
39728;SDS011;25402;42.004;23.088;2023-02-28T12:58:07;23.50;;;9.05;;
39728;SDS011;25402;42.004;23.088;2023-02-28T13:00:35;23.35;;;9.35;;
39728;SDS011;25402;42.004;23.088;2023-02-28T13:03:17;38.90;;;15.18;;
39728;SDS011;25402;42.004;23.088;2023-02-28T13:06:06;31.98;;;11.25;;
39728;SDS011;25402;42.004;23.088;2023-02-28T13:11:25;29.50;;;11.27;;
39728;SDS011;25402;42.004;23.088;2023-02-28T13:13:57;33.97;;;11.70;;
39728;SDS011;25402;42.004;23.088;2023-02-28T13:16:24;29.67;;;11.48;;
39728;SDS011;25402;42.004;23.088;2023-02-28T13:18:51;36.25;;;11.10;;
39728;SDS011;25402;42.004;23.088;2023-02-28T13:21:26;30.50;;;10.48;;
39728;SDS011;25402;42.004;23.088;2023-02-28T13:23:57;32.13;;;10.55;;
39728;SDS011;25402;42.004;23.088;2023-02-28T13:29:27;23.73;;;10.25;;
39728;SDS011;25402;42.004;23.088;2023-02-28T13:34:36;30.52;;;12.52;;
39728;SDS011;25402;42.004;23.088;2023-02-28T13:39:47;32.38;;;10.68;;
39728;SDS011;25402;42.004;23.088;2023-02-28T13:42:32;24.15;;;9.63;;
39728;SDS011;25402;42.004;23.088;2023-02-28T13:45:21;23.75;;;10.35;;
39728;SDS011;25402;42.004;23.088;2023-02-28T13:47:51;24.30;;;10.25;;
39728;SDS011;25402;42.004;23.088;2023-02-28T13:50:20;32.88;;;10.30;;
39728;SDS011;25402;42.004;23.088;2023-02-28T13:52:48;30.05;;;11.75;;
39728;SDS011;25402;42.004;23.088;2023-02-28T13:55:24;29.40;;;11.25;;
39728;SDS011;25402;42.004;23.088;2023-02-28T13:58:06;32.60;;;10.13;;
39728;SDS011;25402;42.004;23.088;2023-02-28T14:00:43;29.17;;;11.35;;
39728;SDS011;25402;42.004;23.088;2023-02-28T14:03:16;26.85;;;11.18;;
39728;SDS011;25402;42.004;23.088;2023-02-28T14:05:46;34.22;;;10.77;;
39728;SDS011;25402;42.004;23.088;2023-02-28T14:08:14;30.02;;;11.13;;
39728;SDS011;25402;42.004;23.088;2023-02-28T14:10:44;29.15;;;11.13;;
39728;SDS011;25402;42.004;23.088;2023-02-28T14:13:13;26.48;;;10.93;;
39728;SDS011;25402;42.004;23.088;2023-02-28T14:15:43;28.70;;;11.48;;
39728;SDS011;25402;42.004;23.088;2023-02-28T14:18:15;30.75;;;12.55;;
39728;SDS011;25402;42.004;23.088;2023-02-28T14:20:42;31.10;;;10.65;;
39728;SDS011;25402;42.004;23.088;2023-02-28T14:23:10;24.85;;;10.57;;
39728;SDS011;25402;42.004;23.088;2023-02-28T14:25:40;30.27;;;10.88;;
39728;SDS011;25402;42.004;23.088;2023-02-28T14:28:16;28.48;;;11.85;;
39728;SDS011;25402;42.004;23.088;2023-02-28T14:30:56;23.80;;;10.90;;
39728;SDS011;25402;42.004;23.088;2023-02-28T14:33:31;28.33;;;11.00;;
39728;SDS011;25402;42.004;23.088;2023-02-28T14:36:04;29.88;;;10.20;;
39728;SDS011;25402;42.004;23.088;2023-02-28T14:38:36;38.15;;;10.93;;
39728;SDS011;25402;42.004;23.088;2023-02-28T14:41:06;25.60;;;10.52;;
39728;SDS011;25402;42.004;23.088;2023-02-28T14:43:47;25.20;;;10.77;;
39728;SDS011;25402;42.004;23.088;2023-02-28T14:46:13;23.48;;;10.48;;
39728;SDS011;25402;42.004;23.088;2023-02-28T14:48:40;33.10;;;10.23;;